Time;durP1;ratioP1;P1;durP2;ratioP2;P2;SDS_P1;SDS_P2;PMS_P1;PMS_P2;Temp;Humidity;BMP_temperature;BMP_pressure;BME280_temperature;BME280_humidity;BME280_pressure;Samples;Min_cycle;Max_cycle;Signal;HPM_P1;HPM_P2
2023/03/27 00:02:36;;;;;;;10.50;2.50;;;6.70;1.00;;;;;;5127643;28;20163;-92
2023/03/27 00:05:19;;;;;;;9.83;2.40;;;6.70;1.00;;;;;;5137172;28;20166;-92
2023/03/27 00:07:52;;;;;;;12.80;3.43;;;6.90;1.00;;;;;;5138736;28;20222;-93
2023/03/27 00:10:25;;;;;;;9.93;1.90;;;6.90;1.00;;;;;;5135771;28;20190;-96
2023/03/27 00:12:57;;;;;;;9.30;2.57;;;6.80;1.00;;;;;;5114911;28;20190;-96
2023/03/27 00:15:42;;;;;;;6.90;1.80;;;6.80;1.00;;;;;;5136890;28;20179;-93
2023/03/27 00:18:23;;;;;;;6.63;2.33;;;6.80;1.00;;;;;;5139639;28;20183;-95
2023/03/27 00:21:02;;;;;;;6.50;2.20;;;6.80;1.00;;;;;;5122105;28;20170;-92
2023/03/27 00:26:53;;;;;;;10.60;3.20;;;6.90;1.00;;;;;;5136599;28;20149;-94
2023/03/27 00:29:30;;;;;;;5.77;1.90;;;6.90;1.00;;;;;;5132645;28;20194;-92
2023/03/27 00:32:04;;;;;;;11.37;2.50;;;7.00;1.00;;;;;;5134898;28;20202;-91
2023/03/27 00:34:33;;;;;;;7.63;2.03;;;7.00;1.00;;;;;;5129290;28;20235;-93
2023/03/27 00:37:19;;;;;;;10.80;2.20;;;6.80;1.00;;;;;;5130591;28;20242;-94
2023/03/27 00:39:48;;;;;;;8.30;2.40;;;6.90;1.00;;;;;;5129496;28;20174;-94
2023/03/27 00:42:22;;;;;;;6.50;2.93;;;7.10;1.00;;;;;;5130131;28;20167;-96
2023/03/27 00:44:52;;;;;;;8.23;2.30;;;7.00;1.00;;;;;;5133225;28;20184;-96
2023/03/27 00:47:31;;;;;;;6.70;1.73;;;7.00;1.00;;;;;;5120390;28;20168;-94
2023/03/27 00:50:06;;;;;;;8.30;2.03;;;6.90;1.00;;;;;;5138344;28;20210;-94
2023/03/27 00:52:48;;;;;;;7.37;1.77;;;6.80;1.00;;;;;;5119397;28;20200;-91
2023/03/27 00:55:51;;;;;;;10.10;2.00;;;6.90;1.00;;;;;;5134202;28;20245;-96
2023/03/27 00:58:32;;;;;;;8.53;2.40;;;6.70;1.00;;;;;;5133090;28;20161;-96
2023/03/27 01:01:02;;;;;;;7.20;1.77;;;6.70;1.00;;;;;;5109044;28;20182;-94
2023/03/27 01:03:40;;;;;;;5.80;2.00;;;6.80;1.00;;;;;;5123694;28;20202;-92
2023/03/27 01:06:08;;;;;;;6.17;1.73;;;6.80;1.00;;;;;;5121882;28;20204;-93
2023/03/27 01:08:51;;;;;;;10.30;2.60;;;6.60;1.00;;;;;;5121297;28;20229;-92
2023/03/27 01:11:31;;;;;;;11.70;3.20;;;6.60;2.90;;;;;;5125369;28;20289;-92
2023/03/27 01:14:32;;;;;;;6.77;1.80;;;6.50;10.20;;;;;;5123473;28;20198;-92
2023/03/27 01:17:54;;;;;;;4.97;1.73;;;6.40;18.60;;;;;;5124226;28;20166;-92
2023/03/27 01:20:35;;;;;;;7.87;2.30;;;6.20;22.00;;;;;;5133808;28;20182;-94
2023/03/27 01:23:35;;;;;;;5.53;2.17;;;6.10;24.90;;;;;;5132814;28;20197;-95
2023/03/27 01:26:46;;;;;;;6.13;2.47;;;6.10;24.90;;;;;;5134131;28;20196;-95
2023/03/27 01:29:41;;;;;;;5.30;1.90;;;6.10;22.80;;;;;;5138156;28;20159;-93
2023/03/27 01:32:48;;;;;;;4.30;2.27;;;6.10;22.20;;;;;;5138004;28;20254;-92
2023/03/27 01:39:22;;;;;;;7.43;2.00;;;6.30;16.30;;;;;;5138791;28;20175;-91
2023/03/27 01:42:15;;;;;;;6.67;1.70;;;6.30;7.50;;;;;;5136659;28;20238;-93
2023/03/27 01:45:16;;;;;;;6.53;2.07;;;6.30;2.60;;;;;;5137305;28;20167;-91
2023/03/27 01:48:27;;;;;;;4.27;1.40;;;6.40;2.10;;;;;;5124833;28;20171;-93
2023/03/27 01:51:30;;;;;;;5.43;1.47;;;6.50;1.00;;;;;;5136617;28;20209;-96
2023/03/27 01:54:14;;;;;;;5.03;1.30;;;6.60;1.00;;;;;;5125830;28;20175;-92
2023/03/27 01:57:15;;;;;;;7.60;1.90;;;6.50;1.00;;;;;;5117064;28;20181;-92
2023/03/27 01:59:57;;;;;;;5.13;1.53;;;6.50;1.00;;;;;;5117461;28;20212;-92
2023/03/27 02:02:30;;;;;;;4.47;1.60;;;6.30;1.00;;;;;;5119395;28;20630;-91
2023/03/27 02:05:12;;;;;;;5.53;1.50;;;6.40;1.00;;;;;;5139053;28;20177;-93
2023/03/27 02:07:42;;;;;;;4.97;1.40;;;6.40;2.10;;;;;;5140971;28;20167;-92
2023/03/27 02:10:46;;;;;;;6.57;2.17;;;6.40;3.30;;;;;;5142169;28;20187;-92
2023/03/27 02:13:17;;;;;;;7.07;1.50;;;6.40;7.20;;;;;;5138472;28;20185;-92
2023/03/27 02:15:53;;;;;;;4.50;1.77;;;6.50;7.80;;;;;;5136368;28;20151;-91
2023/03/27 02:18:31;;;;;;;6.83;1.77;;;6.50;10.70;;;;;;5103532;28;20203;-92
2023/03/27 02:20:57;;;;;;;5.73;1.83;;;6.50;9.00;;;;;;5120038;28;20174;-92
2023/03/27 02:23:24;;;;;;;5.37;1.77;;;6.50;12.20;;;;;;5119033;28;20171;-92
2023/03/27 02:25:56;;;;;;;6.50;2.10;;;6.60;11.80;;;;;;5118558;28;20167;-91
2023/03/27 02:29:13;;;;;;;5.97;1.90;;;6.60;11.30;;;;;;5118577;28;20168;-92
2023/03/27 02:31:47;;;;;;;7.43;1.90;;;6.50;15.70;;;;;;5120284;28;20210;-91
2023/03/27 02:34:51;;;;;;;5.03;1.93;;;6.60;16.20;;;;;;5120254;28;20170;-92
2023/03/27 02:37:38;;;;;;;4.50;1.70;;;6.60;18.10;;;;;;5120120;28;20175;-91
2023/03/27 02:40:29;;;;;;;7.67;1.57;;;6.50;22.90;;;;;;5120510;28;20163;-92
2023/03/27 02:42:57;;;;;;;6.00;1.63;;;6.50;22.90;;;;;;5120094;28;20203;-91
2023/03/27 02:46:09;;;;;;;6.83;2.20;;;6.60;24.30;;;;;;5122394;28;20522;-91
2023/03/27 02:48:47;;;;;;;8.70;1.93;;;6.50;23.30;;;;;;5123029;28;20175;-92
2023/03/27 02:51:36;;;;;;;6.30;1.90;;;6.60;24.00;;;;;;5139553;28;20213;-92
2023/03/27 02:54:23;;;;;;;6.40;1.83;;;6.60;22.80;;;;;;5123879;28;20177;-93
2023/03/27 02:57:27;;;;;;;6.37;2.40;;;6.60;22.60;;;;;;5122802;28;20179;-91
2023/03/27 03:00:38;;;;;;;7.20;1.80;;;6.50;23.40;;;;;;5135564;28;20178;-91
2023/03/27 03:03:52;;;;;;;6.50;2.20;;;6.50;24.90;;;;;;5135423;28;20155;-91
2023/03/27 03:06:40;;;;;;;6.63;1.67;;;6.50;26.20;;;;;;5135485;28;20158;-93
2023/03/27 03:09:08;;;;;;;7.77;1.77;;;6.40;26.90;;;;;;5129503;28;20170;-92
2023/03/27 03:11:45;;;;;;;6.40;1.67;;;6.60;25.80;;;;;;5120960;28;20221;-91
2023/03/27 03:14:11;;;;;;;6.13;2.00;;;6.70;25.30;;;;;;5126180;28;20162;-90
2023/03/27 03:16:39;;;;;;;6.53;1.90;;;6.70;24.40;;;;;;5137127;28;20244;-92
2023/03/27 03:19:52;;;;;;;5.30;1.67;;;6.80;23.30;;;;;;5121545;28;20199;-91
2023/03/27 03:22:38;;;;;;;5.63;1.47;;;6.90;20.50;;;;;;5123901;28;20255;-92
2023/03/27 03:25:11;;;;;;;7.47;2.50;;;7.10;17.60;;;;;;5136031;28;20159;-91
2023/03/27 03:27:40;;;;;;;10.60;2.33;;;6.90;17.30;;;;;;5120052;28;20191;-91
2023/03/27 03:30:08;;;;;;;6.13;2.20;;;6.70;18.30;;;;;;5120768;28;20556;-90
2023/03/27 03:32:42;;;;;;;7.30;2.10;;;6.60;20.60;;;;;;5129185;28;20178;-90
2023/03/27 03:35:08;;;;;;;6.77;1.70;;;6.80;21.20;;;;;;5137040;28;20158;-90
2023/03/27 03:37:37;;;;;;;7.50;2.30;;;6.70;19.60;;;;;;5136264;28;20171;-90
2023/03/27 03:40:10;;;;;;;9.07;3.10;;;6.60;21.20;;;;;;5138450;28;20184;-90
2023/03/27 03:43:00;;;;;;;5.20;2.07;;;6.60;20.60;;;;;;5132296;28;20558;-91
2023/03/27 03:45:27;;;;;;;8.33;2.00;;;6.50;21.50;;;;;;5123954;28;20220;-91
2023/03/27 03:47:52;;;;;;;6.10;1.70;;;6.70;21.90;;;;;;5120598;28;20167;-92
2023/03/27 03:50:44;;;;;;;5.27;1.93;;;6.60;19.30;;;;;;5122962;28;20217;-96
2023/03/27 03:53:28;;;;;;;4.47;1.83;;;6.70;20.10;;;;;;5135605;28;20189;-90
2023/03/27 03:55:57;;;;;;;7.43;2.10;;;6.50;22.70;;;;;;5137517;28;20174;-96
2023/03/27 03:58:36;;;;;;;5.90;2.23;;;6.50;23.40;;;;;;5132565;28;20159;-94
2023/03/27 04:01:01;;;;;;;4.57;2.10;;;6.70;24.00;;;;;;5111977;28;20182;-96
2023/03/27 04:03:31;;;;;;;10.03;2.40;;;6.60;23.00;;;;;;5130371;28;20207;-95
2023/03/27 04:05:59;;;;;;;7.50;2.00;;;6.70;22.30;;;;;;5122255;28;20163;-91
2023/03/27 04:08:43;;;;;;;4.40;2.00;;;6.50;19.40;;;;;;5137334;28;20159;-91
2023/03/27 04:11:32;;;;;;;6.47;1.80;;;6.50;17.50;;;;;;5124407;28;20209;-92
2023/03/27 04:14:07;;;;;;;9.17;2.13;;;6.40;21.00;;;;;;5108261;28;20307;-91
2023/03/27 04:16:49;;;;;;;6.37;1.80;;;6.60;23.40;;;;;;5106185;28;20174;-92
2023/03/27 04:19:21;;;;;;;6.30;2.20;;;6.50;19.80;;;;;;5124832;28;20194;-91
2023/03/27 04:21:52;;;;;;;5.97;1.77;;;6.50;20.90;;;;;;5125059;28;20201;-92
2023/03/27 04:24:32;;;;;;;4.73;1.73;;;6.40;22.40;;;;;;5127585;28;20175;-91
2023/03/27 04:27:20;;;;;;;6.73;1.93;;;6.60;20.30;;;;;;5122192;28;20607;-90
2023/03/27 04:30:26;;;;;;;5.47;1.77;;;6.40;16.50;;;;;;5121834;28;20163;-93
2023/03/27 04:32:58;;;;;;;4.07;1.50;;;6.30;18.00;;;;;;5120574;28;20183;-90
2023/03/27 04:35:33;;;;;;;3.77;1.70;;;6.00;20.90;;;;;;5103485;28;20174;-90
2023/03/27 04:38:03;;;;;;;4.43;1.40;;;5.90;22.50;;;;;;5121775;28;20203;-92
2023/03/27 04:40:37;;;;;;;5.73;1.07;;;5.70;26.70;;;;;;5119861;28;20170;-92
2023/03/27 04:43:07;;;;;;;3.30;1.20;;;5.70;28.30;;;;;;5132340;28;20167;-91
2023/03/27 04:46:06;;;;;;;5.50;1.17;;;5.70;29.80;;;;;;5120875;28;20261;-92
2023/03/27 04:48:39;;;;;;;3.70;1.00;;;5.60;29.40;;;;;;5121413;28;20202;-91
2023/03/27 04:51:08;;;;;;;2.47;0.93;;;5.70;30.60;;;;;;5122756;28;20270;-91
2023/03/27 04:53:37;;;;;;;3.70;1.20;;;5.50;32.90;;;;;;5129127;28;20174;-91
2023/03/27 04:56:05;;;;;;;7.53;1.10;;;5.60;30.20;;;;;;5126948;28;20194;-90
2023/03/27 04:58:33;;;;;;;1.93;1.20;;;5.60;30.00;;;;;;5107968;28;20179;-94
2023/03/27 05:01:02;;;;;;;3.03;1.00;;;5.70;30.20;;;;;;5128628;28;20165;-93
2023/03/27 05:03:31;;;;;;;3.13;1.00;;;5.80;28.60;;;;;;5134416;28;20159;-92
2023/03/27 05:06:03;;;;;;;3.43;1.10;;;5.80;25.40;;;;;;5127467;28;20167;-92
2023/03/27 05:08:46;;;;;;;4.23;1.40;;;6.00;26.70;;;;;;5118487;28;20195;-91
2023/03/27 05:11:15;;;;;;;2.23;1.20;;;5.90;24.50;;;;;;5108101;28;20241;-91
2023/03/27 05:13:40;;;;;;;4.27;1.40;;;5.80;26.10;;;;;;5116057;28;20168;-92
2023/03/27 05:16:12;;;;;;;5.07;1.70;;;5.80;26.20;;;;;;5098847;28;20175;-91
2023/03/27 05:18:40;;;;;;;7.20;1.47;;;5.90;26.50;;;;;;5110236;28;20195;-93
2023/03/27 05:21:06;;;;;;;6.30;2.00;;;5.70;26.20;;;;;;5105146;28;20181;-93
2023/03/27 05:23:32;;;;;;;3.93;1.10;;;5.70;28.20;;;;;;5116475;28;20164;-91
2023/03/27 05:26:00;;;;;;;5.40;1.77;;;5.60;28.30;;;;;;5116323;28;20178;-91
2023/03/27 05:28:27;;;;;;;4.73;1.33;;;5.70;27.40;;;;;;5096923;28;20179;-92
2023/03/27 05:30:53;;;;;;;4.43;1.47;;;5.90;27.30;;;;;;5107444;28;20211;-91
2023/03/27 05:33:25;;;;;;;6.07;1.67;;;6.00;25.80;;;;;;5103535;28;20194;-90
2023/03/27 05:35:58;;;;;;;6.73;2.03;;;6.10;26.10;;;;;;5106325;28;20195;-90
2023/03/27 05:38:30;;;;;;;3.97;1.20;;;6.20;24.40;;;;;;5112421;28;20174;-91
2023/03/27 05:40:56;;;;;;;4.97;1.30;;;5.90;24.10;;;;;;5097488;28;20179;-92
2023/03/27 05:43:22;;;;;;;4.50;1.47;;;5.70;30.70;;;;;;5100735;28;20333;-92
2023/03/27 05:45:56;;;;;;;3.20;1.30;;;5.40;40.70;;;;;;5116202;28;20179;-91
2023/03/27 05:48:25;;;;;;;5.73;1.70;;;5.60;43.70;;;;;;5111347;28;20168;-90
2023/03/27 05:50:54;;;;;;;2.70;1.63;;;5.50;44.70;;;;;;5119163;28;20219;-94
2023/03/27 05:53:41;;;;;;;6.27;1.73;;;5.60;47.00;;;;;;5115492;28;20179;-93
2023/03/27 05:56:08;;;;;;;3.60;1.37;;;5.40;50.20;;;;;;5108484;28;20244;-94
2023/03/27 05:58:39;;;;;;;6.57;1.33;;;5.40;52.60;;;;;;5113172;28;20144;-96
2023/03/27 06:01:04;;;;;;;4.20;1.80;;;5.60;49.60;;;;;;5119931;28;20167;-93
2023/03/27 06:03:39;;;;;;;5.10;1.50;;;5.60;44.60;;;;;;5119567;28;20179;-92
2023/03/27 06:06:09;;;;;;;3.43;1.40;;;5.50;48.70;;;;;;5119178;28;20144;-90
2023/03/27 06:08:42;;;;;;;3.83;1.80;;;5.50;47.90;;;;;;5132176;28;20166;-91
2023/03/27 06:11:17;;;;;;;4.53;1.77;;;5.60;45.30;;;;;;5130161;28;20246;-92
2023/03/27 06:13:46;;;;;;;5.40;2.10;;;5.70;45.60;;;;;;5125674;28;20261;-91
2023/03/27 06:16:19;;;;;;;5.10;1.63;;;5.60;46.40;;;;;;5137979;28;20163;-91
2023/03/27 06:18:50;;;;;;;2.77;1.80;;;5.90;43.10;;;;;;5136008;28;20202;-90
2023/03/27 06:21:16;;;;;;;5.53;2.20;;;5.70;41.80;;;;;;5126377;28;20317;-94
2023/03/27 06:23:55;;;;;;;;;;;;;;;;;;;;;
2023/03/27 06:26:27;;;;;;;7.83;2.50;;;5.90;43.70;;;;;;5122980;28;20316;-94
2023/03/27 06:28:55;;;;;;;3.80;1.90;;;5.60;42.60;;;;;;5123279;28;20253;-93
2023/03/27 06:31:20;;;;;;;6.80;2.10;;;5.60;45.20;;;;;;5120227;28;20211;-92
2023/03/27 06:33:46;;;;;;;3.33;1.60;;;5.60;47.20;;;;;;5127594;28;20219;-93
2023/03/27 06:36:12;;;;;;;4.47;2.10;;;5.70;45.20;;;;;;5134550;28;20238;-92
2023/03/27 06:38:37;;;;;;;4.67;1.97;;;5.80;44.50;;;;;;5138536;28;20174;-94
2023/03/27 06:41:09;;;;;;;4.37;1.87;;;5.70;42.10;;;;;;5138972;28;20193;-91
2023/03/27 06:43:35;;;;;;;4.17;1.97;;;5.80;43.50;;;;;;5139008;28;20159;-93
2023/03/27 06:46:08;;;;;;;3.80;2.07;;;6.00;44.00;;;;;;5139394;28;20282;-90
2023/03/27 06:48:36;;;;;;;4.23;2.00;;;5.80;40.00;;;;;;5116982;28;20171;-96
2023/03/27 06:51:02;;;;;;;5.80;1.87;;;5.90;36.40;;;;;;5134708;28;20272;-94
2023/03/27 06:53:31;;;;;;;7.47;2.43;;;6.00;34.40;;;;;;5140566;28;20250;-93
2023/03/27 06:56:00;;;;;;;4.27;1.93;;;6.10;35.50;;;;;;5138644;28;20262;-94
2023/03/27 06:58:40;;;;;;;3.10;1.73;;;6.20;32.40;;;;;;5125339;28;20159;-93
2023/03/27 07:01:07;;;;;;;5.93;2.20;;;6.40;28.30;;;;;;5119807;28;20217;-94
2023/03/27 07:03:33;;;;;;;5.53;1.80;;;6.40;24.20;;;;;;5117038;28;20183;-93
2023/03/27 07:05:59;;;;;;;5.00;2.20;;;6.40;22.60;;;;;;5103266;28;20179;-93
2023/03/27 07:08:26;;;;;;;3.77;2.33;;;6.30;22.30;;;;;;5120986;28;20186;-92
2023/03/27 07:10:53;;;;;;;4.07;1.70;;;6.20;21.70;;;;;;5122023;28;20255;-92
2023/03/27 07:13:19;;;;;;;7.43;1.80;;;6.40;22.00;;;;;;5101930;28;20250;-93
2023/03/27 07:15:46;;;;;;;3.23;1.70;;;6.40;17.50;;;;;;5136325;27;20737;-94
2023/03/27 07:18:15;;;;;;;3.23;1.40;;;6.20;18.20;;;;;;5133424;27;20241;-96
2023/03/27 07:20:43;;;;;;;5.50;2.00;;;6.30;18.90;;;;;;5149481;27;20239;-93
2023/03/27 07:23:10;;;;;;;4.97;1.97;;;6.20;21.20;;;;;;5138932;27;20180;-93
2023/03/27 07:25:36;;;;;;;8.33;1.80;;;6.40;20.90;;;;;;5104363;28;20172;-96
2023/03/27 07:28:18;;;;;;;3.60;1.53;;;6.60;19.70;;;;;;5117159;28;20231;-94
2023/03/27 07:30:47;;;;;;;5.40;1.90;;;6.30;16.70;;;;;;5126743;28;20199;-91
2023/03/27 07:33:20;;;;;;;5.17;1.60;;;6.50;18.90;;;;;;5128016;28;20197;-93
2023/03/27 07:35:47;;;;;;;5.60;2.00;;;6.60;19.40;;;;;;5124615;28;20218;-90
2023/03/27 07:38:17;;;;;;;11.17;2.17;;;6.70;17.00;;;;;;5123251;28;20171;-92
2023/03/27 07:40:54;;;;;;;3.43;1.30;;;6.50;11.00;;;;;;5128459;28;20166;-91
2023/03/27 07:43:23;;;;;;;5.77;1.80;;;6.30;16.60;;;;;;5138453;28;20240;-89
2023/03/27 07:45:50;;;;;;;5.83;2.30;;;6.30;20.40;;;;;;5132852;28;20202;-93
2023/03/27 07:48:17;;;;;;;6.03;1.53;;;6.20;18.20;;;;;;5126918;28;20613;-93
2023/03/27 07:54:20;;;;;;;6.93;1.93;;;6.10;14.00;;;;;;5151343;27;20188;-93
2023/03/27 07:56:47;;;;;;;3.57;1.70;;;6.10;13.70;;;;;;5141087;27;20193;-92
2023/03/27 07:59:15;;;;;;;7.43;1.83;;;6.30;11.40;;;;;;5143214;27;20692;-96
2023/03/27 08:01:42;;;;;;;4.60;1.63;;;6.10;14.20;;;;;;5113202;27;20176;-96
2023/03/27 08:04:09;;;;;;;8.97;1.97;;;6.20;14.90;;;;;;5112758;28;20194;-92
2023/03/27 08:06:36;;;;;;;4.27;1.83;;;6.30;17.20;;;;;;5151324;27;20183;-93
2023/03/27 08:09:04;;;;;;;5.27;2.10;;;6.30;15.80;;;;;;5152252;27;20251;-91
2023/03/27 08:11:30;;;;;;;7.27;1.93;;;6.40;15.50;;;;;;5150061;27;20212;-91
2023/03/27 08:13:57;;;;;;;5.17;1.90;;;6.50;12.30;;;;;;5152531;27;20164;-94
2023/03/27 08:16:27;;;;;;;5.17;1.97;;;6.70;9.40;;;;;;5123923;28;20192;-91
2023/03/27 08:18:57;;;;;;;7.23;2.23;;;6.70;2.70;;;;;;5102505;28;20206;-96
2023/03/27 08:21:23;;;;;;;5.97;2.33;;;6.70;1.00;;;;;;5097784;28;20179;-95
2023/03/27 08:23:50;;;;;;;7.73;1.70;;;6.80;1.50;;;;;;5101964;28;20190;-94
2023/03/27 08:26:20;;;;;;;7.13;1.80;;;6.90;1.00;;;;;;5114964;28;20179;-93
2023/03/27 08:28:46;;;;;;;9.80;2.30;;;6.50;1.00;;;;;;5117046;28;20242;-95
2023/03/27 08:31:14;;;;;;;6.43;1.97;;;6.70;1.00;;;;;;5117110;28;20653;-94
2023/03/27 08:33:42;;;;;;;8.50;2.03;;;6.90;1.00;;;;;;5115887;28;20181;-92
2023/03/27 08:36:13;;;;;;;6.23;1.50;;;7.00;1.00;;;;;;5147101;27;20249;-92
2023/03/27 08:38:41;;;;;;;6.57;1.73;;;6.90;99.90;;;;;;5149724;27;20191;-93
2023/03/27 08:41:25;;;;;;;6.80;1.63;;;7.10;99.90;;;;;;5152013;27;20170;-90
2023/03/27 08:43:56;;;;;;;8.67;1.97;;;7.30;99.90;;;;;;5151929;27;20183;-94
2023/03/27 08:46:37;;;;;;;3.97;1.60;;;7.30;99.90;;;;;;5109257;28;20203;-91
2023/03/27 08:49:20;;;;;;;9.20;1.37;;;7.30;99.90;;;;;;5134843;27;20201;-94
2023/03/27 08:51:56;;;;;;;5.93;1.67;;;7.20;99.90;;;;;;5142135;27;20275;-91
2023/03/27 08:54:34;;;;;;;7.57;1.50;;;7.00;99.90;;;;;;5110802;28;20223;-91
2023/03/27 08:57:16;;;;;;;5.17;1.63;;;7.00;99.90;;;;;;5101906;28;20160;-91
2023/03/27 08:59:51;;;;;;;8.10;1.70;;;6.90;99.90;;;;;;5101101;28;20502;-92
2023/03/27 09:02:31;;;;;;;5.20;1.03;;;6.90;99.90;;;;;;5132974;27;20175;-94
2023/03/27 09:05:39;;;;;;;5.00;1.33;;;6.80;99.90;;;;;;5127826;28;20181;-94
2023/03/27 09:08:39;;;;;;;8.27;2.17;;;6.60;99.90;;;;;;5137949;27;20197;-89
2023/03/27 09:11:28;;;;;;;7.90;1.13;;;6.60;99.90;;;;;;5106149;28;20222;-93
2023/03/27 09:14:06;;;;;;;5.67;1.50;;;6.60;99.90;;;;;;5143780;27;20210;-96
2023/03/27 09:16:47;;;;;;;5.93;1.60;;;6.80;99.90;;;;;;5128539;28;20273;-92
2023/03/27 09:19:46;;;;;;;8.40;1.67;;;7.00;99.90;;;;;;5116647;28;20222;-91
2023/03/27 09:22:26;;;;;;;4.50;1.27;;;7.20;99.90;;;;;;5046575;28;20272;-92
2023/03/27 09:25:02;;;;;;;3.87;1.27;;;7.30;99.90;;;;;;5116378;28;20198;-91
2023/03/27 09:27:32;;;;;;;6.13;1.30;;;7.30;99.90;;;;;;5114682;28;20238;-94
2023/03/27 09:30:25;;;;;;;7.73;1.40;;;7.60;99.90;;;;;;5115351;28;20167;-89
2023/03/27 09:32:55;;;;;;;9.53;1.60;;;7.70;99.90;;;;;;5116506;28;20224;-90
2023/03/27 09:35:22;;;;;;;8.30;1.87;;;7.70;99.90;;;;;;5134145;28;20158;-89
2023/03/27 09:37:58;;;;;;;5.30;1.30;;;7.60;99.90;;;;;;5122788;28;20190;-90
2023/03/27 09:40:33;;;;;;;5.87;1.60;;;7.60;99.90;;;;;;5120727;28;20562;-91
2023/03/27 09:43:16;;;;;;;4.73;1.80;;;7.70;99.90;;;;;;5117165;28;20390;-90
2023/03/27 09:45:43;;;;;;;5.97;1.30;;;7.80;99.90;;;;;;5115566;28;20179;-87
2023/03/27 09:48:32;;;;;;;8.37;1.50;;;7.70;99.90;;;;;;5119526;28;20176;-89
2023/03/27 09:50:59;;;;;;;4.67;1.07;;;7.50;99.90;;;;;;5125838;28;20310;-89
2023/03/27 09:53:44;;;;;;;;;;;;;;;;;;;;;
2023/03/27 09:56:21;;;;;;;5.40;1.23;;;7.50;99.90;;;;;;5117593;28;20262;-90
2023/03/27 09:59:25;;;;;;;;;;;;;;;;;;;;;
2023/03/27 10:01:58;;;;;;;5.30;1.30;;;7.80;99.90;;;;;;5120139;28;20238;-88
2023/03/27 10:04:27;;;;;;;9.90;1.50;;;7.90;99.90;;;;;;5119387;28;20944;-89
2023/03/27 10:07:09;;;;;;;5.90;1.40;;;8.00;99.90;;;;;;5103210;28;20600;-88
2023/03/27 10:09:37;;;;;;;7.10;1.67;;;7.80;99.90;;;;;;5125750;28;20224;-88
2023/03/27 10:12:06;;;;;;;5.73;1.70;;;7.90;99.90;;;;;;5130068;28;20236;-87
2023/03/27 10:14:38;;;;;;;7.50;2.40;;;8.20;99.90;;;;;;5133659;28;20163;-87
2023/03/27 10:17:05;;;;;;;6.23;1.87;;;8.00;99.90;;;;;;5136356;28;20183;-87
2023/03/27 10:19:38;;;;;;;5.70;1.50;;;7.90;99.90;;;;;;5133494;28;20220;-88
2023/03/27 10:22:33;;;;;;;3.10;1.40;;;8.10;99.90;;;;;;5125079;28;20198;-91
2023/03/27 10:25:12;;;;;;;6.07;1.80;;;7.90;99.90;;;;;;5118055;28;20190;-89
2023/03/27 10:27:42;;;;;;;6.60;2.07;;;8.00;99.90;;;;;;5119780;28;20178;-92
2023/03/27 10:30:30;;;;;;;5.77;2.20;;;8.30;99.90;;;;;;5136315;28;20182;-88
2023/03/27 10:33:02;;;;;;;6.37;2.03;;;8.10;99.90;;;;;;5140275;28;20159;-88
2023/03/27 10:35:43;;;;;;;6.77;2.00;;;7.20;99.90;;;;;;5140989;28;20223;-88
2023/03/27 10:38:15;;;;;;;7.20;1.90;;;6.70;99.90;;;;;;5140926;28;20178;-88
2023/03/27 10:40:49;;;;;;;5.77;1.83;;;6.40;99.90;;;;;;5120684;28;20182;-86
2023/03/27 10:43:34;;;;;;;7.00;1.73;;;6.10;99.90;;;;;;5118911;28;20642;-91
2023/03/27 10:46:05;;;;;;;5.77;1.70;;;6.10;99.90;;;;;;5140341;28;20182;-94
2023/03/27 10:48:52;;;;;;;7.67;2.10;;;6.20;99.90;;;;;;5123261;28;20175;-88
2023/03/27 10:51:21;;;;;;;5.83;1.70;;;6.30;99.90;;;;;;5133990;28;20226;-89
2023/03/27 10:53:54;;;;;;;11.07;2.23;;;6.50;99.90;;;;;;5134909;28;20204;-87
2023/03/27 10:56:42;;;;;;;11.80;2.17;;;6.50;99.90;;;;;;5114468;28;20183;-92
2023/03/27 10:59:32;;;;;;;6.70;1.77;;;6.70;99.90;;;;;;5130040;28;20257;-95
2023/03/27 11:02:34;;;;;;;4.97;1.70;;;6.60;99.90;;;;;;5126354;28;20263;-94
2023/03/27 11:05:12;;;;;;;6.40;1.40;;;6.80;99.90;;;;;;5106633;28;20196;-93
2023/03/27 11:07:43;;;;;;;8.93;1.53;;;6.80;99.90;;;;;;5117339;28;20317;-94
2023/03/27 11:10:33;;;;;;;6.53;1.80;;;7.00;99.90;;;;;;5122402;28;20191;-92
2023/03/27 11:13:07;;;;;;;7.13;2.10;;;7.00;99.90;;;;;;5101592;28;20171;-87
2023/03/27 11:15:45;;;;;;;6.77;2.30;;;7.20;99.90;;;;;;5127835;28;20159;-90
2023/03/27 11:18:22;;;;;;;4.00;1.03;;;7.20;99.90;;;;;;5153224;27;20228;-88
2023/03/27 11:21:11;;;;;;;3.47;0.80;;;6.80;99.90;;;;;;5145726;27;20211;-90
2023/03/27 11:23:48;;;;;;;2.47;1.73;;;5.90;99.90;;;;;;5140036;27;20160;-91
2023/03/27 11:26:18;;;;;;;4.67;1.23;;;5.60;99.90;;;;;;5129910;27;20235;-92
2023/03/27 11:29:10;;;;;;;5.10;1.63;;;5.60;99.90;;;;;;5102921;28;20212;-92
2023/03/27 11:32:00;;;;;;;7.40;1.80;;;5.70;99.90;;;;;;5130806;28;20203;-90
2023/03/27 11:34:56;;;;;;;5.23;1.10;;;6.10;99.90;;;;;;5120643;28;20179;-92
2023/03/27 11:38:01;;;;;;;6.13;1.60;;;6.30;99.90;;;;;;5145966;27;20168;-91
2023/03/27 11:40:55;;;;;;;5.33;1.63;;;6.40;99.90;;;;;;5150022;27;20188;-91
2023/03/27 11:43:21;;;;;;;3.50;1.00;;;6.70;99.90;;;;;;5133622;28;20179;-89
2023/03/27 11:46:25;;;;;;;4.27;1.47;;;6.80;99.90;;;;;;5134845;28;20193;-90
2023/03/27 11:49:21;;;;;;;7.17;2.10;;;7.10;99.90;;;;;;5139037;28;20162;-89
2023/03/27 11:55:09;;;;;;;8.73;2.00;;;7.50;99.90;;;;;;5135345;28;20167;-89
2023/03/27 11:57:46;;;;;;;2.23;0.80;;;7.60;99.90;;;;;;5133744;28;20182;-87
2023/03/27 12:00:24;;;;;;;4.53;1.00;;;7.40;99.90;;;;;;5122013;28;20166;-92
2023/03/27 12:03:24;;;;;;;3.60;1.00;;;7.00;99.90;;;;;;5119161;28;20167;-91
2023/03/27 12:06:08;;;;;;;3.53;1.23;;;6.90;99.90;;;;;;5118024;28;20242;-90
2023/03/27 12:08:42;;;;;;;4.57;1.17;;;7.10;99.90;;;;;;5116558;28;20542;-91
2023/03/27 12:11:11;;;;;;;3.47;0.80;;;7.20;99.90;;;;;;5116257;28;20202;-89
2023/03/27 12:13:43;;;;;;;6.67;1.50;;;7.20;99.90;;;;;;5109827;28;20167;-90
2023/03/27 12:16:30;;;;;;;5.50;1.20;;;7.30;99.90;;;;;;5136820;28;20174;-91
2023/03/27 12:19:52;;;;;;;4.43;1.07;;;7.40;99.90;;;;;;5126742;28;20198;-92
2023/03/27 12:22:44;;;;;;;7.17;1.60;;;7.70;99.90;;;;;;5119056;28;20182;-92
2023/03/27 12:25:26;;;;;;;6.43;1.60;;;7.90;99.90;;;;;;5117113;28;20178;-91
2023/03/27 12:28:16;;;;;;;7.20;1.90;;;8.10;99.90;;;;;;5116888;28;20637;-93
2023/03/27 12:31:05;;;;;;;5.80;1.10;;;8.40;99.90;;;;;;5116523;28;20217;-93
2023/03/27 12:33:36;;;;;;;3.20;1.53;;;8.30;99.90;;;;;;5135257;28;20173;-91
2023/03/27 12:36:08;;;;;;;6.00;2.00;;;8.50;99.90;;;;;;5127448;28;20684;-89
2023/03/27 12:38:40;;;;;;;4.63;1.27;;;8.60;99.90;;;;;;5124644;28;20179;-94
2023/03/27 12:41:30;;;;;;;5.30;1.77;;;8.60;99.90;;;;;;5135988;28;20175;-91
2023/03/27 12:44:02;;;;;;;3.83;1.10;;;8.80;99.90;;;;;;5130955;28;20209;-92
2023/03/27 12:46:38;;;;;;;2.77;1.13;;;8.60;99.90;;;;;;5132552;28;20163;-93
2023/03/27 12:49:11;;;;;;;5.40;1.60;;;8.70;99.90;;;;;;5131306;28;20169;-91
2023/03/27 12:52:05;;;;;;;4.27;1.10;;;9.00;99.90;;;;;;5132445;28;20206;-92
2023/03/27 12:54:37;;;;;;;5.73;1.60;;;8.80;99.90;;;;;;5120605;28;20175;-91
2023/03/27 12:57:23;;;;;;;8.37;1.90;;;8.70;99.90;;;;;;5117335;28;20181;-88
2023/03/27 12:59:52;;;;;;;5.77;2.17;;;8.90;99.90;;;;;;5116526;28;20204;-90
2023/03/27 13:03:01;;;;;;;9.10;2.20;;;9.10;99.90;;;;;;5115823;28;20271;-90
2023/03/27 13:05:59;;;;;;;4.10;1.37;;;9.00;99.90;;;;;;5118987;28;20224;-95
2023/03/27 13:08:40;;;;;;;8.10;1.77;;;8.90;99.90;;;;;;5071435;28;20186;-92
2023/03/27 13:11:36;;;;;;;12.80;3.43;;;9.20;99.90;;;;;;5112751;28;20214;-91
2023/03/27 13:14:26;;;;;;;4.70;1.30;;;9.20;99.90;;;;;;5111474;28;20198;-93
2023/03/27 13:17:27;;;;;;;6.40;1.53;;;8.70;99.90;;;;;;5112441;28;20598;-90
2023/03/27 13:20:27;;;;;;;4.50;1.10;;;7.90;99.90;;;;;;5110363;28;20231;-90
2023/03/27 13:23:11;;;;;;;4.87;1.40;;;7.10;99.90;;;;;;5094681;28;20171;-90
2023/03/27 13:26:26;;;;;;;4.80;1.57;;;6.30;99.90;;;;;;5095837;28;20167;-88
2023/03/27 13:28:55;;;;;;;8.60;2.33;;;6.10;99.90;;;;;;5100803;28;20175;-90
2023/03/27 13:31:57;;;;;;;6.20;3.20;;;5.90;99.90;;;;;;5114111;28;20701;-91
2023/03/27 13:34:26;;;;;;;7.40;3.40;;;5.80;99.90;;;;;;5098443;28;20178;-90
2023/03/27 13:37:04;;;;;;;15.03;7.10;;;6.10;99.90;;;;;;5104413;28;20168;-90
2023/03/27 13:39:58;;;;;;;9.03;3.43;;;6.20;99.90;;;;;;5123552;28;20573;-91
2023/03/27 13:42:34;;;;;;;6.73;1.80;;;6.40;99.90;;;;;;5130567;28;20175;-90
2023/03/27 13:45:16;;;;;;;6.93;1.77;;;6.60;99.90;;;;;;5113323;28;20210;-90
2023/03/27 13:48:12;;;;;;;8.60;1.93;;;6.90;99.90;;;;;;5109598;28;20167;-91
2023/03/27 13:51:12;;;;;;;9.77;1.90;;;7.20;99.90;;;;;;5127916;28;20229;-88
2023/03/27 13:54:17;;;;;;;10.10;2.40;;;7.60;99.90;;;;;;5116629;28;20304;-91
2023/03/27 13:57:05;;;;;;;12.50;3.43;;;8.00;99.90;;;;;;5114850;28;20167;-91
2023/03/27 13:59:52;;;;;;;8.80;3.67;;;8.20;99.90;;;;;;5109505;28;20212;-92
2023/03/27 14:02:55;;;;;;;7.37;1.80;;;8.40;99.90;;;;;;5122364;28;20175;-91
2023/03/27 14:05:48;;;;;;;7.23;2.40;;;8.20;99.90;;;;;;5118432;28;20182;-92
2023/03/27 14:08:25;;;;;;;4.53;1.87;;;8.10;99.90;;;;;;5114971;28;20242;-93
2023/03/27 14:11:14;;;;;;;5.13;1.63;;;7.70;99.90;;;;;;5114651;28;20206;-91
2023/03/27 14:14:03;;;;;;;5.80;1.73;;;7.40;99.90;;;;;;5125439;28;20163;-93
2023/03/27 14:17:25;;;;;;;7.87;2.27;;;7.00;99.90;;;;;;5125957;28;20173;-94